Hlavní strana
METAR-TAF:

METAR-TAF

Letiště :

Sogndal, Norsko

zeměpisná šířka: 61-09N, zeměpisná délka: 007-08E, výška: 49 m

Aktuální stav počasí

Zpráva byla vytvořena před 33 minutami, v 18:50 UTC
Západní vítr 10 kt
Teplota 6°C
Vlhkost vzduchu 81%
Tlak 1013 hPa
Viditelnost 10 km a více
Skoro jasno ve výšce 2500 ft
Oblačno až skoro zataženo ve výšce 3500 ft
slabý déšť

METAR: ENSG 061850Z 26010KT 9999 -RA FEW025 BKN035 06/03 Q1013 RMK WIND 3806FT 21015KT

Čas: 21:23 (19:23 UTC)


TAF: chybějící

Stav a předpovědi počasí z více než 4 000 letišť (zprávy METAR a TAF).

Červené a žluté tečky na mapě představují dostupné meteorologické stanice.

Když kurzor umístíte na tečku, zobrazí se název stanice.

Pak kliknutím zobrazíte stav a předpověď počasí.

Chcete-li změnit mapu, kliknutím na zelené tlačítko se znaménkem +mapu přiblížíte, kliknutím na zelené tlačítko se znaménkem – mapu oddálíte a kliknutím na zelené šipky přejdete na sousední mapy.


METAR-TAF: